Time;durP1;ratioP1;P1;durP2;ratioP2;P2;SDS_P1;SDS_P2;PMS_P1;PMS_P2;Temp;Humidity;BMP_temperature;BMP_pressure;BME280_temperature;BME280_humidity;BME280_pressure;Samples;Min_cycle;Max_cycle;Signal;HPM_P1;HPM_P2
2024/01/29 00:02:07;;;;;;;6.80;4.03;;;5.60;99.90;;;;;;4992889;28;20050;-61
2024/01/29 00:04:33;;;;;;;9.38;4.38;;;5.60;99.90;;;;;;4948642;28;20593;-58
2024/01/29 00:06:59;;;;;;;7.72;4.22;;;5.60;99.90;;;;;;4927026;28;20043;-61
2024/01/29 00:09:24;;;;;;;7.32;4.25;;;5.50;99.90;;;;;;4934324;28;20050;-60
2024/01/29 00:11:50;;;;;;;8.85;4.20;;;5.60;99.90;;;;;;4939945;28;20050;-61
2024/01/29 00:14:16;;;;;;;7.85;4.55;;;5.50;99.90;;;;;;4935903;28;20040;-60
2024/01/29 00:16:42;;;;;;;8.98;4.07;;;5.50;99.90;;;;;;4929449;28;20432;-60
2024/01/29 00:19:07;;;;;;;7.28;4.10;;;5.50;99.90;;;;;;4917984;28;20031;-60
2024/01/29 00:21:33;;;;;;;9.68;5.22;;;5.50;99.90;;;;;;4928030;28;20039;-60
2024/01/29 00:24:00;;;;;;;6.65;4.03;;;5.40;99.90;;;;;;4951218;28;20051;-60
2024/01/29 00:26:27;;;;;;;8.00;4.72;;;5.40;99.90;;;;;;4940305;28;20066;-61
2024/01/29 00:28:53;;;;;;;8.07;5.07;;;5.40;99.90;;;;;;4944930;28;20043;-61
2024/01/29 00:31:21;;;;;;;8.52;4.22;;;5.40;99.90;;;;;;4939485;28;20495;-61
2024/01/29 00:33:48;;;;;;;7.43;4.30;;;5.40;99.90;;;;;;4926009;28;20040;-61
2024/01/29 00:36:14;;;;;;;6.15;4.28;;;5.30;99.90;;;;;;4921450;28;20500;-60
2024/01/29 00:38:40;;;;;;;8.95;4.60;;;5.30;99.90;;;;;;4911679;28;20066;-60
2024/01/29 00:41:05;;;;;;;7.38;4.10;;;5.30;99.90;;;;;;4974498;28;20500;-60
2024/01/29 00:43:32;;;;;;;7.45;4.82;;;5.30;99.90;;;;;;4917607;28;20078;-60
2024/01/29 00:45:58;;;;;;;6.85;4.70;;;5.20;99.90;;;;;;4953040;28;20047;-60
2024/01/29 00:48:25;;;;;;;9.35;4.70;;;5.20;99.90;;;;;;4932216;28;20295;-60
2024/01/29 00:50:51;;;;;;;6.88;4.35;;;5.20;99.90;;;;;;4918848;28;20061;-60
2024/01/29 00:53:17;;;;;;;8.25;4.20;;;5.20;99.90;;;;;;4947143;28;20500;-60
2024/01/29 00:55:46;;;;;;;6.70;4.28;;;5.10;99.90;;;;;;4973683;28;20043;-60
2024/01/29 00:58:13;;;;;;;5.60;4.03;;;5.10;99.90;;;;;;4916214;28;20035;-60
2024/01/29 01:00:39;;;;;;;7.25;4.57;;;5.10;99.90;;;;;;4929693;28;20366;-60
2024/01/29 01:03:05;;;;;;;7.93;4.18;;;5.10;99.90;;;;;;4943472;28;20046;-60
2024/01/29 01:05:32;;;;;;;8.23;5.05;;;5.00;99.90;;;;;;4945260;28;20403;-60
2024/01/29 01:07:59;;;;;;;7.88;4.90;;;5.00;99.90;;;;;;4926103;28;20079;-58
2024/01/29 01:10:24;;;;;;;7.38;4.57;;;5.00;99.90;;;;;;5003378;28;20044;-60
2024/01/29 01:12:50;;;;;;;8.45;4.13;;;4.90;99.90;;;;;;4960542;28;20039;-60
2024/01/29 01:15:16;;;;;;;7.40;4.65;;;5.00;99.90;;;;;;4926205;28;20058;-60
2024/01/29 01:17:42;;;;;;;9.82;4.28;;;4.90;99.90;;;;;;4931331;28;20407;-60
2024/01/29 01:20:08;;;;;;;9.18;4.40;;;4.90;99.90;;;;;;4947641;28;20458;-60
2024/01/29 01:22:34;;;;;;;8.02;4.43;;;4.90;99.90;;;;;;4952238;28;20056;-60
2024/01/29 01:25:00;;;;;;;6.93;4.60;;;4.90;99.90;;;;;;4947663;28;20047;-60
2024/01/29 01:27:25;;;;;;;8.43;4.40;;;4.90;99.90;;;;;;4922779;28;20155;-60
2024/01/29 01:29:51;;;;;;;7.03;4.43;;;4.90;99.90;;;;;;4937081;28;20572;-60
2024/01/29 01:32:17;;;;;;;6.88;4.15;;;4.80;99.90;;;;;;4944063;28;20039;-60
2024/01/29 01:34:42;;;;;;;8.48;4.35;;;4.80;99.90;;;;;;4939160;28;20580;-60
2024/01/29 01:37:08;;;;;;;8.90;4.80;;;4.80;99.90;;;;;;4973845;28;20070;-60
2024/01/29 01:39:34;;;;;;;7.78;4.65;;;4.70;99.90;;;;;;4958323;28;20511;-60
2024/01/29 01:42:00;;;;;;;7.03;4.38;;;4.70;99.90;;;;;;4936754;28;20049;-60
2024/01/29 01:44:26;;;;;;;9.43;4.25;;;4.70;99.90;;;;;;4940283;28;20063;-60
2024/01/29 01:46:51;;;;;;;9.05;5.13;;;4.70;99.90;;;;;;4916604;28;20268;-60
2024/01/29 01:49:18;;;;;;;9.57;5.25;;;4.60;99.90;;;;;;4937605;28;20050;-60
2024/01/29 01:51:45;;;;;;;7.72;4.78;;;4.60;99.90;;;;;;4945239;28;20079;-60
2024/01/29 01:54:13;;;;;;;7.43;4.78;;;4.60;99.90;;;;;;4963802;28;20099;-60
2024/01/29 01:56:40;;;;;;;9.15;4.82;;;4.60;99.90;;;;;;4935897;28;20074;-60
2024/01/29 01:59:07;;;;;;;8.35;4.80;;;4.60;99.90;;;;;;4943177;28;20050;-60
2024/01/29 02:01:33;;;;;;;10.13;4.53;;;4.60;99.90;;;;;;4967970;28;20295;-59
2024/01/29 02:03:58;;;;;;;8.68;4.53;;;4.60;99.90;;;;;;4920073;29;20051;-60
2024/01/29 02:06:25;;;;;;;11.70;5.22;;;4.50;99.90;;;;;;4924186;28;20398;-60
2024/01/29 02:08:51;;;;;;;10.65;4.65;;;4.50;99.90;;;;;;4941884;28;20451;-60
2024/01/29 02:11:16;;;;;;;10.27;5.68;;;4.50;99.90;;;;;;4932503;28;20044;-60
2024/01/29 02:13:42;;;;;;;8.32;4.88;;;4.40;99.90;;;;;;4929170;28;20048;-60
2024/01/29 02:16:08;;;;;;;9.55;4.43;;;4.40;99.90;;;;;;4927321;28;20380;-60
2024/01/29 02:18:33;;;;;;;9.48;5.07;;;4.40;99.90;;;;;;4933640;28;20610;-59
2024/01/29 02:20:59;;;;;;;8.88;5.18;;;4.40;99.90;;;;;;4968672;28;20455;-60
2024/01/29 02:23:25;;;;;;;8.07;4.75;;;4.40;99.90;;;;;;4936858;28;20527;-59
2024/01/29 02:25:51;;;;;;;11.20;5.30;;;4.40;99.90;;;;;;4996851;28;20128;-60
2024/01/29 02:28:17;;;;;;;9.50;5.30;;;4.40;99.90;;;;;;4931425;28;20046;-60
2024/01/29 02:30:43;;;;;;;7.72;4.65;;;4.30;99.90;;;;;;4931953;28;20078;-60
2024/01/29 02:33:09;;;;;;;9.63;5.32;;;4.30;99.90;;;;;;4939909;28;20061;-60
2024/01/29 02:35:38;;;;;;;7.55;5.35;;;4.30;99.90;;;;;;4935808;28;20039;-59
2024/01/29 02:38:04;;;;;;;9.20;5.78;;;4.30;99.90;;;;;;4951391;28;20043;-59
2024/01/29 02:40:29;;;;;;;9.13;5.30;;;4.30;99.90;;;;;;5006930;28;20051;-60
2024/01/29 02:42:55;;;;;;;8.90;5.22;;;4.20;99.90;;;;;;4942908;28;20130;-59
2024/01/29 02:45:21;;;;;;;8.25;5.25;;;4.20;99.90;;;;;;4925725;28;20411;-60
2024/01/29 02:47:47;;;;;;;7.05;4.95;;;4.20;99.90;;;;;;5001356;28;20040;-60
2024/01/29 02:50:12;;;;;;;8.43;5.78;;;4.20;99.90;;;;;;4916489;28;20137;-60
2024/01/29 02:52:38;;;;;;;7.97;5.05;;;4.10;99.90;;;;;;4916710;28;20055;-58
2024/01/29 02:55:07;;;;;;;10.00;5.57;;;4.10;99.90;;;;;;4959086;28;20720;-60
2024/01/29 02:57:33;;;;;;;10.35;5.82;;;4.10;99.90;;;;;;4942870;28;20035;-60
2024/01/29 02:59:59;;;;;;;10.85;5.30;;;4.10;99.90;;;;;;4952199;23;20030;-60
2024/01/29 03:02:24;;;;;;;9.13;5.18;;;4.10;99.90;;;;;;5010604;28;20031;-59
2024/01/29 03:04:51;;;;;;;9.93;5.22;;;4.00;99.90;;;;;;4970023;28;20062;-59
2024/01/29 03:07:17;;;;;;;7.93;5.38;;;4.00;99.90;;;;;;4931372;28;20100;-58
2024/01/29 03:09:42;;;;;;;9.40;5.55;;;4.00;99.90;;;;;;4959167;28;20067;-57
2024/01/29 03:12:08;;;;;;;11.05;5.68;;;4.00;99.90;;;;;;4958964;28;20122;-58
2024/01/29 03:14:34;;;;;;;10.32;5.25;;;4.00;99.90;;;;;;4927271;28;20038;-58
2024/01/29 03:17:00;;;;;;;12.32;5.30;;;4.00;99.90;;;;;;4945971;28;20043;-58
2024/01/29 03:19:25;;;;;;;8.10;5.05;;;4.00;99.90;;;;;;4919237;28;20047;-57
2024/01/29 03:21:51;;;;;;;10.00;5.22;;;4.00;99.90;;;;;;4943292;28;20039;-58
2024/01/29 03:24:17;;;;;;;7.97;5.70;;;4.00;99.90;;;;;;4958790;28;20070;-57
2024/01/29 03:26:43;;;;;;;9.43;5.13;;;4.00;99.90;;;;;;4963399;28;20104;-58
2024/01/29 03:29:08;;;;;;;7.32;5.40;;;4.00;99.90;;;;;;4946237;28;20096;-58
2024/01/29 03:31:34;;;;;;;10.48;5.47;;;4.00;99.90;;;;;;4941187;28;20543;-57
2024/01/29 03:34:00;;;;;;;8.07;5.45;;;4.00;99.90;;;;;;4949756;28;20286;-58
2024/01/29 03:36:25;;;;;;;9.25;5.63;;;4.00;99.90;;;;;;4966843;28;20045;-58
2024/01/29 03:38:51;;;;;;;8.45;5.15;;;4.00;99.90;;;;;;4964783;28;20505;-58
2024/01/29 03:41:17;;;;;;;8.02;4.75;;;4.00;99.90;;;;;;4947868;28;20038;-57
2024/01/29 03:43:43;;;;;;;7.15;4.72;;;4.00;99.90;;;;;;4930130;28;20413;-57
2024/01/29 03:46:08;;;;;;;10.38;5.68;;;4.00;99.90;;;;;;4941882;28;20153;-57
2024/01/29 03:48:34;;;;;;;8.52;5.40;;;4.00;99.90;;;;;;4969933;28;20039;-58
2024/01/29 03:51:00;;;;;;;8.85;6.22;;;3.90;99.90;;;;;;4958626;28;20089;-58
2024/01/29 03:53:25;;;;;;;10.57;5.70;;;3.90;99.90;;;;;;4958133;28;20129;-58
2024/01/29 03:55:52;;;;;;;9.15;5.60;;;3.90;99.90;;;;;;4964925;28;20497;-58
2024/01/29 03:58:20;;;;;;;8.55;5.07;;;3.90;99.90;;;;;;4964929;28;20054;-58
2024/01/29 04:00:46;;;;;;;7.40;5.38;;;3.90;99.90;;;;;;4947468;28;20045;-58
2024/01/29 04:03:11;;;;;;;8.23;4.90;;;3.90;99.90;;;;;;4947094;28;20051;-58
2024/01/29 04:05:37;;;;;;;10.50;5.55;;;3.90;99.90;;;;;;4941944;28;20059;-58
2024/01/29 04:08:03;;;;;;;9.10;5.97;;;3.90;99.90;;;;;;4944635;28;20050;-58
2024/01/29 04:10:29;;;;;;;9.00;5.30;;;3.90;99.90;;;;;;4962005;28;20060;-58
2024/01/29 04:12:55;;;;;;;8.73;6.00;;;3.80;99.90;;;;;;4949994;28;20039;-58
2024/01/29 04:15:20;;;;;;;10.32;6.20;;;3.90;99.90;;;;;;4961061;28;20038;-56
2024/01/29 04:17:46;;;;;;;10.93;5.70;;;3.90;99.90;;;;;;4968890;28;20065;-57
2024/01/29 04:20:12;;;;;;;8.35;6.05;;;3.90;99.90;;;;;;4946233;28;20589;-57
2024/01/29 04:22:37;;;;;;;9.07;5.72;;;3.90;99.90;;;;;;4981526;28;20125;-58
2024/01/29 04:25:05;;;;;;;7.78;5.88;;;3.90;99.90;;;;;;4949956;28;20582;-58
2024/01/29 04:27:31;;;;;;;10.63;6.00;;;3.90;99.90;;;;;;4952039;28;20053;-57
2024/01/29 04:29:56;;;;;;;11.15;6.05;;;3.90;99.90;;;;;;4947979;28;20083;-58
2024/01/29 04:32:22;;;;;;;8.15;5.10;;;3.90;99.90;;;;;;4976134;28;20053;-58
2024/01/29 04:34:48;;;;;;;10.00;6.15;;;3.90;99.90;;;;;;4953250;28;20073;-58
2024/01/29 04:37:14;;;;;;;8.48;5.63;;;3.90;99.90;;;;;;4954941;28;21229;-58
2024/01/29 04:39:43;;;;;;;11.23;6.10;;;3.90;99.90;;;;;;4948105;28;20038;-57
2024/01/29 04:42:09;;;;;;;8.73;5.68;;;3.90;99.90;;;;;;4961927;28;20043;-59
2024/01/29 04:44:35;;;;;;;10.77;6.90;;;3.90;99.90;;;;;;4963970;28;20057;-58
2024/01/29 04:47:00;;;;;;;10.43;6.05;;;3.90;99.90;;;;;;4963917;28;20047;-58
2024/01/29 04:49:26;;;;;;;9.75;6.30;;;3.90;99.90;;;;;;4959960;28;20049;-58
2024/01/29 04:51:52;;;;;;;8.52;6.25;;;3.90;99.90;;;;;;4947139;28;20070;-58
2024/01/29 04:54:18;;;;;;;11.02;6.50;;;3.90;99.90;;;;;;4944715;28;20540;-58
2024/01/29 04:56:44;;;;;;;9.38;5.95;;;3.90;99.90;;;;;;4959095;28;20032;-58
2024/01/29 04:59:09;;;;;;;9.95;6.18;;;3.90;99.90;;;;;;4972011;28;20030;-57
2024/01/29 05:01:35;;;;;;;10.30;5.82;;;3.90;99.90;;;;;;4941792;28;20043;-58
2024/01/29 05:04:01;;;;;;;10.35;6.13;;;3.90;99.90;;;;;;4927717;28;20463;-58
2024/01/29 05:06:27;;;;;;;9.77;6.10;;;3.90;99.90;;;;;;4963402;28;20059;-57
2024/01/29 05:08:52;;;;;;;8.57;5.68;;;3.90;99.90;;;;;;4945263;28;20108;-58
2024/01/29 05:11:18;;;;;;;7.75;5.78;;;4.00;99.90;;;;;;4962246;28;20466;-58
2024/01/29 05:13:46;;;;;;;9.23;6.22;;;4.00;99.90;;;;;;4962442;28;20432;-56
2024/01/29 05:16:13;;;;;;;9.40;5.97;;;4.00;99.90;;;;;;4940865;28;20149;-57
2024/01/29 05:18:39;;;;;;;11.57;5.85;;;4.00;99.90;;;;;;4971992;28;20405;-58
2024/01/29 05:21:05;;;;;;;10.27;6.40;;;4.00;99.90;;;;;;4969242;28;20035;-58
2024/01/29 05:23:31;;;;;;;8.40;5.97;;;4.00;99.90;;;;;;4986247;28;20063;-57
2024/01/29 05:25:57;;;;;;;8.07;6.22;;;4.00;99.90;;;;;;4949114;28;20533;-57
2024/01/29 05:28:22;;;;;;;9.65;5.78;;;4.00;99.90;;;;;;4946686;28;20031;-58
2024/01/29 05:30:51;;;;;;;11.30;6.75;;;4.00;99.90;;;;;;4944450;28;20397;-58
2024/01/29 05:33:16;;;;;;;8.52;6.18;;;4.00;99.90;;;;;;4964665;28;20448;-57
2024/01/29 05:35:42;;;;;;;9.45;6.43;;;4.00;99.90;;;;;;4951528;28;20126;-56
2024/01/29 05:38:08;;;;;;;10.30;6.72;;;4.00;99.90;;;;;;4946700;28;20237;-58
2024/01/29 05:40:34;;;;;;;9.45;6.57;;;4.00;99.90;;;;;;4964042;28;20539;-58
2024/01/29 05:42:59;;;;;;;11.02;6.85;;;4.00;99.90;;;;;;4962688;28;20096;-58
2024/01/29 05:45:25;;;;;;;9.20;5.90;;;4.00;99.90;;;;;;4950986;28;20047;-58
2024/01/29 05:47:51;;;;;;;9.57;6.22;;;4.10;99.90;;;;;;4942737;28;20103;-58
2024/01/29 05:50:17;;;;;;;10.18;7.32;;;4.00;99.90;;;;;;4943854;28;20504;-57
2024/01/29 05:52:45;;;;;;;8.88;6.78;;;4.00;99.90;;;;;;4961792;28;20050;-58
2024/01/29 05:55:11;;;;;;;10.25;6.45;;;4.10;99.90;;;;;;4993122;28;20038;-57
2024/01/29 05:57:37;;;;;;;10.57;7.03;;;4.10;99.90;;;;;;4960219;28;20390;-57
2024/01/29 06:00:07;;;;;;;10.10;6.85;;;4.10;99.90;;;;;;4976032;28;20378;-57
2024/01/29 06:02:33;;;;;;;12.57;7.38;;;4.10;99.90;;;;;;4956797;28;20112;-58
2024/01/29 06:04:59;;;;;;;11.27;7.90;;;4.10;99.90;;;;;;4974940;28;20135;-58
2024/01/29 06:07:24;;;;;;;9.85;6.85;;;4.10;99.90;;;;;;4945702;28;20135;-58
2024/01/29 06:09:50;;;;;;;12.20;6.80;;;4.10;99.90;;;;;;4959315;28;20129;-58
2024/01/29 06:12:16;;;;;;;11.45;7.03;;;4.10;99.90;;;;;;4965505;28;20050;-57
2024/01/29 06:14:42;;;;;;;9.88;6.72;;;4.10;99.90;;;;;;4950135;28;20042;-58
2024/01/29 06:17:08;;;;;;;10.52;6.95;;;4.10;99.90;;;;;;4964475;28;20057;-58
2024/01/29 06:19:33;;;;;;;11.52;7.38;;;4.10;99.90;;;;;;4945242;28;20066;-57
2024/01/29 06:21:59;;;;;;;10.40;6.53;;;4.20;99.90;;;;;;4959747;28;20057;-58
2024/01/29 06:24:25;;;;;;;11.15;7.47;;;4.10;99.90;;;;;;4974517;28;20047;-58
2024/01/29 06:26:50;;;;;;;9.38;6.38;;;4.10;99.90;;;;;;4953378;28;20559;-57
2024/01/29 06:29:16;;;;;;;10.68;6.80;;;4.10;99.90;;;;;;4932176;28;20046;-58
2024/01/29 06:31:42;;;;;;;11.60;7.60;;;4.20;99.90;;;;;;4954004;28;20041;-58
2024/01/29 06:34:08;;;;;;;9.88;7.20;;;4.10;99.90;;;;;;4943307;28;20039;-57
2024/01/29 06:36:33;;;;;;;12.48;7.50;;;4.10;99.90;;;;;;4939649;28;20042;-58
2024/01/29 06:38:59;;;;;;;11.50;7.07;;;4.20;99.90;;;;;;4957106;28;20421;-58
2024/01/29 06:41:26;;;;;;;12.52;7.43;;;4.20;99.90;;;;;;4943867;28;20042;-58
2024/01/29 06:43:54;;;;;;;12.93;7.38;;;4.10;99.90;;;;;;4951453;28;20030;-58
2024/01/29 06:46:20;;;;;;;11.48;7.72;;;4.20;99.90;;;;;;4974850;28;20057;-58
2024/01/29 06:48:46;;;;;;;13.38;7.30;;;4.20;99.90;;;;;;4954663;28;20114;-58
2024/01/29 06:51:14;;;;;;;13.13;6.75;;;4.20;99.90;;;;;;4943743;28;20126;-57
2024/01/29 06:53:40;;;;;;;13.07;7.20;;;4.20;99.90;;;;;;4961942;28;20394;-57
2024/01/29 06:56:06;;;;;;;11.15;7.07;;;4.20;99.90;;;;;;4948333;28;20054;-58
2024/01/29 06:58:33;;;;;;;9.27;7.18;;;4.20;99.90;;;;;;4955149;28;20035;-57
2024/01/29 07:01:01;;;;;;;12.43;7.80;;;4.20;99.90;;;;;;4959269;28;20040;-58
2024/01/29 07:03:29;;;;;;;10.90;7.47;;;4.20;99.90;;;;;;4942713;28;20043;-58
2024/01/29 07:05:56;;;;;;;11.77;8.20;;;4.20;99.90;;;;;;4951082;28;20180;-58
2024/01/29 07:08:22;;;;;;;10.88;7.68;;;4.10;99.90;;;;;;4958587;28;20086;-58
2024/01/29 07:10:48;;;;;;;11.65;7.93;;;4.20;99.90;;;;;;4963238;28;20043;-58
2024/01/29 07:13:14;;;;;;;12.07;8.00;;;4.20;99.90;;;;;;4941823;28;20511;-58
2024/01/29 07:15:40;;;;;;;9.88;7.28;;;4.20;99.90;;;;;;4943224;28;20139;-57
2024/01/29 07:18:06;;;;;;;12.98;8.40;;;4.20;99.90;;;;;;4937910;28;20062;-58
2024/01/29 07:20:38;;;;;;;15.05;8.48;;;4.20;99.90;;;;;;4944822;28;20035;-58
2024/01/29 07:23:08;;;;;;;13.13;8.43;;;4.20;99.90;;;;;;4953828;28;20046;-58
2024/01/29 07:25:40;;;;;;;11.68;8.15;;;4.20;99.90;;;;;;4962843;28;20536;-58
2024/01/29 07:28:06;;;;;;;15.25;8.30;;;4.20;99.90;;;;;;4978112;28;20188;-58
2024/01/29 07:30:32;;;;;;;14.48;8.68;;;4.20;99.90;;;;;;4992640;28;20051;-58
2024/01/29 07:32:58;;;;;;;11.43;8.40;;;4.20;99.90;;;;;;4961917;28;20489;-57
2024/01/29 07:35:25;;;;;;;11.50;8.30;;;4.20;99.90;;;;;;4955276;28;20033;-58
2024/01/29 07:37:52;;;;;;;20.58;8.90;;;4.20;99.90;;;;;;4951887;28;20046;-58
2024/01/29 07:40:19;;;;;;;13.82;8.57;;;4.20;99.90;;;;;;4972995;28;20038;-58
2024/01/29 07:42:46;;;;;;;12.10;8.63;;;4.20;99.90;;;;;;4959560;28;20082;-58
2024/01/29 07:45:12;;;;;;;12.55;8.35;;;4.20;99.90;;;;;;4977414;28;20101;-58
2024/01/29 07:47:41;;;;;;;9.75;8.20;;;4.20;99.90;;;;;;4960086;28;20057;-58
2024/01/29 07:50:08;;;;;;;10.68;8.32;;;4.20;99.90;;;;;;4966248;28;20289;-58
2024/01/29 07:52:37;;;;;;;11.30;8.93;;;4.20;99.90;;;;;;4974706;28;20157;-58
2024/01/29 07:55:03;;;;;;;12.48;9.02;;;4.20;99.90;;;;;;4958517;28;20525;-56
2024/01/29 07:57:28;;;;;;;11.80;8.27;;;4.30;99.90;;;;;;4946561;28;20074;-58
2024/01/29 07:59:54;;;;;;;16.23;9.70;;;4.30;99.90;;;;;;4965031;28;20043;-58
2024/01/29 08:02:20;;;;;;;13.27;8.77;;;4.30;99.90;;;;;;4946546;28;20142;-58
2024/01/29 08:04:46;;;;;;;12.75;8.98;;;4.30;99.90;;;;;;4929682;28;20046;-58
2024/01/29 08:07:12;;;;;;;10.30;7.88;;;4.30;99.90;;;;;;4958186;28;21513;-58
2024/01/29 08:09:37;;;;;;;12.02;8.15;;;4.30;99.90;;;;;;4966251;28;20031;-58
2024/01/29 08:12:05;;;;;;;15.23;9.25;;;4.30;99.90;;;;;;4942744;28;20040;-58
2024/01/29 08:14:30;;;;;;;13.82;8.88;;;4.30;99.90;;;;;;4943509;28;20075;-58
2024/01/29 08:16:56;;;;;;;12.95;8.60;;;4.30;99.90;;;;;;4961248;28;20525;-58
2024/01/29 08:19:22;;;;;;;12.15;8.77;;;4.30;99.90;;;;;;4945461;28;20043;-58
2024/01/29 08:21:48;;;;;;;12.95;9.60;;;4.40;99.90;;;;;;4947037;28;20147;-58
2024/01/29 08:24:13;;;;;;;14.85;9.85;;;4.30;99.90;;;;;;4949498;28;20453;-58
2024/01/29 08:26:39;;;;;;;14.18;9.68;;;4.30;99.90;;;;;;4948939;28;20074;-58
2024/01/29 08:29:05;;;;;;;11.77;8.50;;;4.40;99.90;;;;;;4926309;28;20424;-58
2024/01/29 08:31:32;;;;;;;15.35;9.02;;;4.40;99.90;;;;;;4967893;28;20108;-58
2024/01/29 08:33:58;;;;;;;14.32;9.35;;;4.40;99.90;;;;;;4962306;28;20250;-58
2024/01/29 08:36:26;;;;;;;15.40;8.90;;;4.40;99.90;;;;;;4948822;28;20044;-58
2024/01/29 08:38:52;;;;;;;11.73;8.68;;;4.50;99.90;;;;;;4941651;28;20093;-57
2024/01/29 08:41:17;;;;;;;13.85;9.40;;;4.40;99.90;;;;;;4937160;28;20129;-58
2024/01/29 08:43:43;;;;;;;15.38;10.00;;;4.40;99.90;;;;;;4970322;28;20043;-58
2024/01/29 08:46:09;;;;;;;12.85;9.02;;;4.40;99.90;;;;;;4959664;28;20379;-58
2024/01/29 08:48:35;;;;;;;14.48;9.32;;;4.50;99.90;;;;;;4947219;28;20051;-58
2024/01/29 08:51:00;;;;;;;13.65;9.38;;;4.50;99.90;;;;;;4942107;28;20057;-59
2024/01/29 08:53:26;;;;;;;13.52;9.60;;;4.50;99.90;;;;;;4962515;28;20133;-57
2024/01/29 08:55:52;;;;;;;13.68;9.93;;;4.50;99.90;;;;;;4948348;28;20034;-57
2024/01/29 08:58:18;;;;;;;14.52;9.98;;;4.50;99.90;;;;;;4947359;28;20321;-57
2024/01/29 09:00:44;;;;;;;15.95;10.20;;;4.50;99.90;;;;;;4899570;23;1414008;-63
2024/01/29 09:03:10;;;;;;;14.85;9.80;;;4.60;99.90;;;;;;4968671;28;20087;-63
2024/01/29 09:05:38;;;;;;;17.10;9.88;;;4.60;99.90;;;;;;4975569;28;20146;-63
2024/01/29 09:08:05;;;;;;;17.38;10.80;;;4.70;99.90;;;;;;4963479;28;20046;-63
2024/01/29 09:10:31;;;;;;;14.52;10.43;;;4.70;99.90;;;;;;4972026;28;20542;-63
2024/01/29 09:12:57;;;;;;;16.23;11.07;;;4.80;99.90;;;;;;4961038;28;20039;-63
2024/01/29 09:15:23;;;;;;;14.57;9.82;;;4.90;99.90;;;;;;5011005;28;20470;-63
2024/01/29 09:17:48;;;;;;;16.88;10.32;;;4.90;99.90;;;;;;4959258;28;20073;-63
2024/01/29 09:20:14;;;;;;;20.70;10.93;;;5.00;99.90;;;;;;4961566;28;20389;-63
2024/01/29 09:22:41;;;;;;;15.07;10.32;;;5.00;99.90;;;;;;5030632;28;20061;-63
2024/01/29 09:25:07;;;;;;;17.15;10.45;;;5.10;99.90;;;;;;5025966;28;20046;-63
2024/01/29 09:27:34;;;;;;;14.73;10.02;;;5.10;99.90;;;;;;5012371;28;20043;-63
2024/01/29 09:29:59;;;;;;;17.30;10.65;;;5.20;99.90;;;;;;4962224;28;20497;-63
2024/01/29 09:32:26;;;;;;;14.55;9.95;;;5.20;99.90;;;;;;5043982;28;20055;-63
2024/01/29 09:34:51;;;;;;;15.10;10.32;;;5.30;99.90;;;;;;5028138;28;20207;-63
2024/01/29 09:37:18;;;;;;;15.10;11.30;;;5.40;99.90;;;;;;5028980;28;20161;-63
2024/01/29 09:39:45;;;;;;;15.57;10.48;;;5.40;99.90;;;;;;5028521;28;20289;-63
2024/01/29 09:42:17;;;;;;;15.13;10.40;;;5.50;99.90;;;;;;5026480;28;20059;-63
2024/01/29 09:44:47;;;;;;;14.50;10.43;;;5.60;99.90;;;;;;4942796;28;20267;-63
2024/01/29 09:47:51;;;;;;;17.10;11.30;;;5.60;99.90;;;;;;5051256;28;20050;-63
2024/01/29 09:50:17;;;;;;;16.17;10.52;;;5.70;99.90;;;;;;4958422;28;20292;-63
2024/01/29 09:52:45;;;;;;;17.50;11.75;;;5.70;99.90;;;;;;4998408;28;20047;-63
2024/01/29 09:55:13;;;;;;;14.02;10.75;;;5.80;99.90;;;;;;5030008;28;20407;-63
2024/01/29 09:57:39;;;;;;;15.30;10.73;;;5.80;99.90;;;;;;5039405;28;20032;-63
2024/01/29 10:00:06;;;;;;;15.77;11.43;;;5.90;99.90;;;;;;5067661;28;20534;-64
2024/01/29 10:02:36;;;;;;;14.52;11.25;;;6.00;99.90;;;;;;5063716;28;20041;-63
2024/01/29 10:05:06;;;;;;;15.65;10.98;;;6.00;99.90;;;;;;5041806;28;20075;-64
2024/01/29 10:07:32;;;;;;;15.30;11.52;;;6.10;99.90;;;;;;5031314;28;20040;-63
2024/01/29 10:10:01;;;;;;;14.80;10.85;;;6.10;99.90;;;;;;5047688;28;20055;-63
2024/01/29 10:12:28;;;;;;;13.95;10.65;;;6.10;99.90;;;;;;5067741;28;20044;-63
2024/01/29 10:14:56;;;;;;;19.08;11.05;;;6.10;99.90;;;;;;5034738;28;20044;-63
2024/01/29 10:17:24;;;;;;;18.65;12.88;;;6.20;99.90;;;;;;5063340;28;20051;-63
2024/01/29 10:19:51;;;;;;;23.20;13.40;;;6.20;99.90;;;;;;5043702;28;20045;-63
2024/01/29 10:22:21;;;;;;;18.63;12.52;;;6.20;99.90;;;;;;5033618;28;20048;-64
2024/01/29 10:24:59;;;;;;;19.85;13.20;;;6.30;99.90;;;;;;5050315;28;20118;-63
2024/01/29 10:27:25;;;;;;;16.95;11.98;;;6.40;99.90;;;;;;5070650;28;20044;-64
2024/01/29 10:29:51;;;;;;;14.50;10.55;;;6.40;99.90;;;;;;5051697;28;20052;-63
2024/01/29 10:32:19;;;;;;;18.48;11.70;;;6.40;99.90;;;;;;5063306;28;20067;-63
2024/01/29 10:34:45;;;;;;;15.10;11.32;;;6.40;99.90;;;;;;5055105;28;20056;-63
2024/01/29 10:37:11;;;;;;;14.65;11.15;;;6.50;99.90;;;;;;5053693;28;20037;-63
2024/01/29 10:39:38;;;;;;;17.42;11.27;;;6.60;99.90;;;;;;5052069;28;20123;-63
2024/01/29 10:42:07;;;;;;;17.13;12.13;;;6.60;99.90;;;;;;5049140;28;20264;-63
2024/01/29 10:44:35;;;;;;;14.63;11.10;;;6.60;99.90;;;;;;5037262;28;20032;-63
2024/01/29 10:47:13;;;;;;;18.67;12.00;;;6.60;99.90;;;;;;5048165;28;20028;-63
2024/01/29 10:49:42;;;;;;;15.35;10.82;;;6.70;99.90;;;;;;5045824;28;20032;-63
2024/01/29 10:52:09;;;;;;;15.82;12.15;;;6.70;99.90;;;;;;5044855;28;20051;-63
2024/01/29 10:54:39;;;;;;;15.48;11.07;;;6.70;99.90;;;;;;5057683;28;20037;-63
2024/01/29 10:57:09;;;;;;;15.30;11.75;;;6.90;99.90;;;;;;5034142;28;20130;-63
2024/01/29 10:59:37;;;;;;;17.38;12.43;;;6.80;99.90;;;;;;5057916;28;20044;-63
2024/01/29 11:02:05;;;;;;;17.05;11.55;;;6.80;99.90;;;;;;5042931;28;20056;-63
2024/01/29 11:04:34;;;;;;;21.95;12.68;;;6.90;99.90;;;;;;5062222;28;20156;-64
2024/01/29 11:07:12;;;;;;;22.52;13.75;;;6.90;99.90;;;;;;5047985;28;20063;-63
2024/01/29 11:09:42;;;;;;;21.45;12.45;;;6.90;99.90;;;;;;5026880;28;20103;-63
2024/01/29 11:12:13;;;;;;;26.52;14.35;;;7.00;99.90;;;;;;5060652;28;20422;-63
2024/01/29 11:14:40;;;;;;;24.83;14.13;;;7.00;99.90;;;;;;5044801;28;20064;-63
2024/01/29 11:17:06;;;;;;;25.73;13.88;;;7.10;99.90;;;;;;5048476;28;20566;-64
2024/01/29 11:19:35;;;;;;;21.85;13.40;;;7.10;99.90;;;;;;5049147;28;20127;-63
2024/01/29 11:22:01;;;;;;;27.85;13.95;;;7.10;99.90;;;;;;5032079;28;20496;-63
2024/01/29 11:24:28;;;;;;;28.52;15.00;;;7.20;99.90;;;;;;5058765;28;20044;-63
2024/01/29 11:27:07;;;;;;;27.08;14.52;;;7.20;99.90;;;;;;5063075;28;20054;-63
2024/01/29 11:29:38;;;;;;;25.60;14.23;;;7.30;99.90;;;;;;5066091;28;20028;-63
2024/01/29 11:32:06;;;;;;;24.92;14.98;;;7.30;99.90;;;;;;5029626;28;20574;-63
2024/01/29 11:34:32;;;;;;;25.05;14.27;;;7.30;99.90;;;;;;5042561;28;20049;-63
2024/01/29 11:36:58;;;;;;;24.88;14.60;;;7.40;99.90;;;;;;5030189;28;20135;-64
2024/01/29 11:39:27;;;;;;;28.58;15.23;;;7.40;99.90;;;;;;5040136;28;20032;-63
2024/01/29 11:41:56;;;;;;;32.20;15.88;;;7.40;99.90;;;;;;5048309;28;20054;-63
2024/01/29 11:44:23;;;;;;;34.20;15.88;;;7.40;99.90;;;;;;5030624;28;20252;-64
2024/01/29 11:46:49;;;;;;;36.42;17.48;;;7.50;99.90;;;;;;5033776;28;20036;-63
2024/01/29 11:49:25;;;;;;;33.88;16.77;;;7.40;99.90;;;;;;5065313;28;20123;-63
2024/01/29 11:51:54;;;;;;;35.25;16.63;;;7.50;99.90;;;;;;5052162;28;20048;-63
2024/01/29 11:54:21;;;;;;;35.72;17.45;;;7.50;99.90;;;;;;5045075;28;20127;-63
2024/01/29 11:56:48;;;;;;;38.20;18.13;;;7.50;99.90;;;;;;5045324;28;20037;-63
2024/01/29 11:59:14;;;;;;;35.55;17.63;;;7.50;99.90;;;;;;5044327;28;20068;-64
2024/01/29 12:01:43;;;;;;;37.80;17.90;;;7.50;99.90;;;;;;5046053;28;20067;-64
2024/01/29 12:04:17;;;;;;;47.05;19.35;;;7.50;99.90;;;;;;5044185;28;20036;-64
2024/01/29 12:06:52;;;;;;;40.75;19.13;;;7.50;99.90;;;;;;5039488;28;20048;-64
2024/01/29 12:09:18;;;;;;;38.85;18.98;;;7.50;99.90;;;;;;5042385;28;20048;-64
2024/01/29 12:11:44;;;;;;;40.25;18.52;;;7.60;99.90;;;;;;5041299;28;20052;-63
2024/01/29 12:14:13;;;;;;;43.17;19.33;;;7.50;99.90;;;;;;5026957;28;20684;-64
2024/01/29 12:16:39;;;;;;;37.60;19.52;;;7.60;99.90;;;;;;5047396;28;20179;-64
2024/01/29 12:19:08;;;;;;;34.33;17.88;;;7.60;99.90;;;;;;5053662;28;20053;-64
2024/01/29 12:21:34;;;;;;;42.90;19.77;;;7.60;99.90;;;;;;5029562;28;20040;-64
2024/01/29 12:24:00;;;;;;;35.60;17.73;;;7.60;99.90;;;;;;5052598;28;20077;-64
2024/01/29 12:26:29;;;;;;;53.17;19.58;;;7.60;99.90;;;;;;5061797;28;20052;-64
2024/01/29 12:28:56;;;;;;;37.75;18.33;;;7.60;99.90;;;;;;5027159;28;20122;-64
2024/01/29 12:31:21;;;;;;;39.50;19.05;;;7.70;99.90;;;;;;5061610;28;20040;-64
2024/01/29 12:33:47;;;;;;;33.17;17.08;;;7.70;99.90;;;;;;5059931;28;20047;-64
2024/01/29 12:36:15;;;;;;;47.03;21.70;;;7.70;99.90;;;;;;5042948;28;20071;-64
2024/01/29 12:38:42;;;;;;;34.22;17.92;;;7.80;99.90;;;;;;5046812;28;20049;-64
2024/01/29 12:41:08;;;;;;;30.88;18.85;;;7.90;99.90;;;;;;5048909;28;20041;-64
2024/01/29 12:43:34;;;;;;;30.50;16.88;;;7.90;99.90;;;;;;5045837;28;20049;-64
2024/01/29 12:46:10;;;;;;;29.77;15.95;;;7.90;99.90;;;;;;5052889;28;20033;-64